createdAt,value
2023-04-15T00:01:33.995Z,6.35
2023-04-15T00:04:01.960Z,6.37
2023-04-15T00:06:29.671Z,6.36
2023-04-15T00:08:57.157Z,6.31
2023-04-15T00:11:26.036Z,6.30
2023-04-15T00:13:54.421Z,6.23
2023-04-15T00:16:21.954Z,6.21
2023-04-15T00:18:49.473Z,6.23
2023-04-15T00:21:17.197Z,6.28
2023-04-15T00:23:45.212Z,6.30
2023-04-15T00:26:13.326Z,6.31
2023-04-15T00:28:43.593Z,6.30
2023-04-15T00:31:11.159Z,6.26
2023-04-15T00:33:38.683Z,6.28
2023-04-15T00:36:08.471Z,6.16
2023-04-15T00:38:36.001Z,6.25
2023-04-15T00:41:04.313Z,6.25
2023-04-15T00:43:31.806Z,6.19
2023-04-15T00:46:02.647Z,6.25
2023-04-15T00:48:30.821Z,6.29
2023-04-15T00:50:58.280Z,6.33
2023-04-15T00:53:25.978Z,6.35
2023-04-15T00:55:53.737Z,6.41
2023-04-15T00:58:21.257Z,6.39
2023-04-15T01:00:49.155Z,6.38
2023-04-15T01:03:18.465Z,6.30
2023-04-15T01:05:46.547Z,6.25
2023-04-15T01:08:14.830Z,6.24
2023-04-15T01:10:42.828Z,6.28
2023-04-15T01:13:10.468Z,6.30
2023-04-15T01:15:38.133Z,6.18
2023-04-15T01:18:06.019Z,6.17
2023-04-15T01:20:35.511Z,6.12
2023-04-15T01:23:03.250Z,6.13
2023-04-15T01:25:34.766Z,6.15
2023-04-15T01:28:03.207Z,6.17
2023-04-15T01:30:35.061Z,6.17
2023-04-15T01:33:02.793Z,6.17
2023-04-15T01:35:30.365Z,6.20
2023-04-15T01:38:02.031Z,6.19
2023-04-15T01:40:29.911Z,6.11
2023-04-15T01:43:01.167Z,6.13
2023-04-15T01:45:28.950Z,6.25
2023-04-15T01:47:56.578Z,6.25
2023-04-15T01:50:24.100Z,6.28
2023-04-15T01:52:52.083Z,6.28
2023-04-15T01:55:19.876Z,6.26
2023-04-15T01:57:47.668Z,6.24
2023-04-15T02:00:17.534Z,6.26
2023-04-15T02:02:45.175Z,6.22
2023-04-15T02:05:12.764Z,6.22
2023-04-15T02:07:40.259Z,6.27
2023-04-15T02:10:09.368Z,6.30
2023-04-15T02:12:37.060Z,6.20
2023-04-15T02:15:05.340Z,6.24
2023-04-15T02:17:37.357Z,6.23
2023-04-15T02:20:05.981Z,6.20
2023-04-15T02:22:33.511Z,6.19
2023-04-15T02:25:01.094Z,6.19
2023-04-15T02:27:29.056Z,6.18
2023-04-15T02:29:56.559Z,6.13
2023-04-15T02:32:24.462Z,6.08
2023-04-15T02:34:53.304Z,6.10
2023-04-15T02:37:20.875Z,6.11
2023-04-15T02:39:48.437Z,6.13
2023-04-15T02:42:16.586Z,6.07
2023-04-15T02:44:44.406Z,6.04
2023-04-15T02:47:12.018Z,5.99
2023-04-15T02:49:40.140Z,6.05
2023-04-15T02:52:09.974Z,6.01
2023-04-15T02:54:37.449Z,5.89
2023-04-15T02:57:06.750Z,5.97
2023-04-15T02:59:34.363Z,5.90
2023-04-15T03:02:02.139Z,5.97
2023-04-15T03:04:30.866Z,5.86
2023-04-15T03:06:58.394Z,5.82
2023-04-15T03:09:33.242Z,5.90
2023-04-15T03:12:04.994Z,5.96
2023-04-15T03:14:32.529Z,5.93
2023-04-15T03:17:00.259Z,5.99
2023-04-15T03:19:27.735Z,5.95
2023-04-15T03:21:55.359Z,5.97
2023-04-15T03:24:22.916Z,5.99
2023-04-15T03:26:51.734Z,6.00
2023-04-15T03:29:19.443Z,6.01
2023-04-15T03:31:47.250Z,6.06
2023-04-15T03:34:14.765Z,6.04
2023-04-15T03:36:42.291Z,6.02
2023-04-15T03:39:09.748Z,6.05
2023-04-15T03:41:37.232Z,6.07
2023-04-15T03:44:06.375Z,6.07
2023-04-15T03:46:33.939Z,6.07
2023-04-15T03:49:01.612Z,6.10
2023-04-15T03:51:29.368Z,6.14
2023-04-15T03:53:56.992Z,6.15
2023-04-15T03:56:24.486Z,6.07
2023-04-15T03:58:51.979Z,6.01
2023-04-15T04:01:21.256Z,6.05
2023-04-15T04:03:48.845Z,6.09
2023-04-15T04:06:16.873Z,6.01
2023-04-15T04:08:44.640Z,5.98
2023-04-15T04:11:12.372Z,5.98
2023-04-15T04:13:40.505Z,5.94
2023-04-15T04:16:08.339Z,6.03
2023-04-15T04:18:37.283Z,6.07
2023-04-15T04:21:04.819Z,6.00
2023-04-15T04:23:32.343Z,6.04
2023-04-15T04:25:59.850Z,6.11
2023-04-15T04:28:27.413Z,6.11
2023-04-15T04:30:54.955Z,6.13
2023-04-15T04:33:22.463Z,6.02
2023-04-15T04:35:51.511Z,6.08
2023-04-15T04:38:18.980Z,6.09
2023-04-15T04:40:46.658Z,6.06
2023-04-15T04:43:14.805Z,6.07
2023-04-15T04:45:42.905Z,6.09
2023-04-15T04:48:10.577Z,6.12
2023-04-15T04:50:38.124Z,6.17
2023-04-15T04:53:06.952Z,6.16
2023-04-15T04:55:36.940Z,6.22
2023-04-15T04:58:04.447Z,6.09
2023-04-15T05:00:31.940Z,6.07
2023-04-15T05:02:59.670Z,6.11
2023-04-15T05:05:27.351Z,6.12
2023-04-15T05:07:54.844Z,6.14
2023-04-15T05:10:23.670Z,6.17
2023-04-15T05:12:51.921Z,6.16
2023-04-15T05:15:19.565Z,6.15
2023-04-15T05:17:47.058Z,6.17
2023-04-15T05:20:14.645Z,6.13
2023-04-15T05:22:42.221Z,6.13
2023-04-15T05:25:10.286Z,6.21
2023-04-15T05:27:39.169Z,6.27
2023-04-15T05:30:07.854Z,6.24
2023-04-15T05:32:35.654Z,6.15
2023-04-15T05:35:03.480Z,6.27
2023-04-15T05:37:30.952Z,6.17
2023-04-15T05:39:58.427Z,6.19
2023-04-15T05:42:25.952Z,6.16
2023-04-15T05:44:54.756Z,6.18
2023-04-15T05:47:22.357Z,6.19
2023-04-15T05:49:49.852Z,6.28
2023-04-15T05:52:17.449Z,6.27
2023-04-15T05:54:44.974Z,6.29
2023-04-15T05:57:12.551Z,6.32
2023-04-15T05:59:42.112Z,6.35
2023-04-15T06:02:11.540Z,6.36
2023-04-15T06:04:39.445Z,6.22
2023-04-15T06:07:06.999Z,6.26
2023-04-15T06:09:34.708Z,6.27
2023-04-15T06:12:03.027Z,6.32
2023-04-15T06:14:30.617Z,6.31
2023-04-15T06:16:58.117Z,6.18
2023-04-15T06:19:26.984Z,6.18
2023-04-15T06:21:54.423Z,6.21
2023-04-15T06:24:21.987Z,6.25
2023-04-15T06:26:49.662Z,6.26
2023-04-15T06:29:17.145Z,6.10
2023-04-15T06:31:44.744Z,6.18
2023-04-15T06:34:12.265Z,6.24
2023-04-15T06:36:41.158Z,6.20
2023-04-15T06:39:08.716Z,6.25
2023-04-15T06:41:36.311Z,6.28
2023-04-15T06:44:04.231Z,6.30
2023-04-15T06:46:31.741Z,6.35
2023-04-15T06:48:59.344Z,6.35
2023-04-15T06:51:27.038Z,6.36
2023-04-15T06:53:55.817Z,6.35
2023-04-15T06:56:23.404Z,6.37
2023-04-15T06:58:51.150Z,6.04
2023-04-15T07:01:18.699Z,6.16
2023-04-15T07:03:46.302Z,6.19
2023-04-15T07:06:14.345Z,6.27
2023-04-15T07:08:42.879Z,6.29
2023-04-15T07:11:11.672Z,6.26
2023-04-15T07:13:39.197Z,6.36
2023-04-15T07:16:07.029Z,6.39
2023-04-15T07:18:34.530Z,6.23
2023-04-15T07:21:02.670Z,6.23
2023-04-15T07:23:30.426Z,6.25
2023-04-15T07:25:57.970Z,6.35
2023-04-15T07:28:26.824Z,6.35
2023-04-15T07:30:54.415Z,6.39
2023-04-15T07:33:22.017Z,6.39
2023-04-15T07:35:50.030Z,6.38
2023-04-15T07:38:17.908Z,6.40
2023-04-15T07:40:45.379Z,6.27
2023-04-15T07:43:13.579Z,6.29
2023-04-15T07:45:42.441Z,6.40
2023-04-15T07:48:10.045Z,6.44
2023-04-15T07:50:38.064Z,6.39
2023-04-15T07:53:05.674Z,6.42
2023-04-15T07:55:33.214Z,6.46
2023-04-15T07:58:00.668Z,6.46
2023-04-15T08:00:28.219Z,6.45
2023-04-15T08:02:59.541Z,6.50
2023-04-15T08:05:27.179Z,6.55
2023-04-15T08:07:54.869Z,6.57
2023-04-15T08:10:22.661Z,6.59
2023-04-15T08:12:50.758Z,6.64
2023-04-15T08:15:18.416Z,6.68
2023-04-15T08:17:46.570Z,6.68
2023-04-15T08:20:15.586Z,6.71
2023-04-15T08:22:43.173Z,6.79
2023-04-15T08:25:11.260Z,6.76
2023-04-15T08:27:38.820Z,6.78
2023-04-15T08:30:07.741Z,6.85
2023-04-15T08:32:35.382Z,6.91
2023-04-15T08:35:02.904Z,6.94
2023-04-15T08:37:31.850Z,6.88
2023-04-15T08:39:59.423Z,6.76
2023-04-15T08:42:32.329Z,6.78
2023-04-15T08:45:00.921Z,6.81
2023-04-15T08:47:31.484Z,6.87
2023-04-15T08:49:59.436Z,6.93
2023-04-15T08:52:27.570Z,6.96
2023-04-15T08:54:59.089Z,6.99
2023-04-15T08:57:27.693Z,7.07
2023-04-15T08:59:57.025Z,7.09
2023-04-15T09:02:25.155Z,7.00
2023-04-15T09:04:52.776Z,7.06
2023-04-15T09:07:22.362Z,7.03
2023-04-15T09:09:51.133Z,7.00
2023-04-15T09:12:20.402Z,6.95
2023-04-15T09:14:48.207Z,6.93
2023-04-15T09:17:20.018Z,6.89
2023-04-15T09:19:47.610Z,6.88
2023-04-15T09:22:15.376Z,6.97
2023-04-15T09:24:43.431Z,6.91
2023-04-15T09:27:11.251Z,6.85
2023-04-15T09:29:42.310Z,6.80
2023-04-15T09:32:13.951Z,6.88
2023-04-15T09:34:41.799Z,6.97
2023-04-15T09:37:10.893Z,7.05
2023-04-15T09:39:49.982Z,7.08
2023-04-15T09:42:24.087Z,7.07
2023-04-15T09:44:53.198Z,7.11
2023-04-15T09:47:30.134Z,7.00
2023-04-15T09:49:58.335Z,7.07
2023-04-15T09:52:26.025Z,7.05
2023-04-15T09:54:55.060Z,7.25
2023-04-15T09:57:23.636Z,7.07
2023-04-15T09:59:52.561Z,6.96
2023-04-15T10:02:21.422Z,7.05
2023-04-15T10:04:50.053Z,7.08
2023-04-15T10:07:20.490Z,7.13
2023-04-15T10:09:49.494Z,7.18
2023-04-15T10:12:18.221Z,7.26
2023-04-15T10:14:46.288Z,7.18
2023-04-15T10:17:17.513Z,7.23
2023-04-15T10:19:45.260Z,7.30
2023-04-15T10:22:12.977Z,7.30
2023-04-15T10:24:41.177Z,7.37
2023-04-15T10:27:09.100Z,7.44
2023-04-15T10:29:36.866Z,7.48
2023-04-15T10:32:04.691Z,7.51
2023-04-15T10:34:33.623Z,7.57
2023-04-15T10:37:03.628Z,7.53
2023-04-15T10:39:44.562Z,7.54
2023-04-15T10:42:13.680Z,7.58
2023-04-15T10:44:43.634Z,7.54
2023-04-15T10:47:12.891Z,7.59
2023-04-15T10:49:49.935Z,7.58
2023-04-15T10:52:19.152Z,7.62
2023-04-15T10:54:46.812Z,7.63
2023-04-15T10:57:22.914Z,7.61
2023-04-15T11:00:13.026Z,7.71
2023-04-15T11:02:42.365Z,7.74
2023-04-15T11:05:11.713Z,7.71
2023-04-15T11:07:41.254Z,7.74
2023-04-15T11:10:52.430Z,7.71
2023-04-15T11:13:33.099Z,7.76
2023-04-15T11:16:04.136Z,7.82
2023-04-15T11:18:33.306Z,7.76
2023-04-15T11:21:04.813Z,7.82
2023-04-15T11:23:37.254Z,7.85
2023-04-15T11:26:09.172Z,7.88
2023-04-15T11:28:38.752Z,7.96
2023-04-15T11:31:10.663Z,7.92
2023-04-15T11:33:38.697Z,7.87
2023-04-15T11:36:07.953Z,7.82
2023-04-15T11:38:35.659Z,7.78
2023-04-15T11:41:03.222Z,7.78
2023-04-15T11:43:35.210Z,7.81
2023-04-15T11:46:03.742Z,7.83
2023-04-15T11:48:33.467Z,7.83
2023-04-15T11:51:02.630Z,7.81
2023-04-15T11:53:43.325Z,7.77
2023-04-15T11:56:12.007Z,7.80
2023-04-15T11:58:39.989Z,7.87
2023-04-15T12:01:08.111Z,7.81
2023-04-15T12:03:39.912Z,7.89
2023-04-15T12:06:17.693Z,7.92
2023-04-15T12:09:04.702Z,7.92
2023-04-15T12:11:40.921Z,7.95
2023-04-15T12:14:14.043Z,7.98
2023-04-15T12:16:47.957Z,8.02
2023-04-15T12:19:18.383Z,8.01
2023-04-15T12:21:48.594Z,8.04
2023-04-15T12:24:21.430Z,8.06
2023-04-15T12:26:50.436Z,8.06
2023-04-15T12:29:18.507Z,8.10
2023-04-15T12:31:51.370Z,8.04
2023-04-15T12:34:19.924Z,8.06
2023-04-15T12:36:47.543Z,8.08
2023-04-15T12:39:15.096Z,8.07
2023-04-15T12:41:44.353Z,8.11
2023-04-15T12:44:12.010Z,8.13
2023-04-15T12:46:39.524Z,8.11
2023-04-15T12:49:07.132Z,8.15
2023-04-15T12:51:34.618Z,8.15
2023-04-15T12:54:02.342Z,8.15
2023-04-15T12:56:30.026Z,8.10
2023-04-15T12:58:58.849Z,8.10
2023-04-15T13:01:26.544Z,8.13
2023-04-15T13:03:54.292Z,8.04
2023-04-15T13:06:24.012Z,8.02
2023-04-15T13:08:58.439Z,8.01
2023-04-15T13:11:27.219Z,8.08
2023-04-15T13:13:54.732Z,8.10
2023-04-15T13:16:23.838Z,8.09
2023-04-15T13:18:51.719Z,8.09
2023-04-15T13:21:19.762Z,8.04
2023-04-15T13:23:47.356Z,7.95
2023-04-15T13:26:14.824Z,7.90
2023-04-15T13:28:42.416Z,7.95
2023-04-15T13:31:10.008Z,7.96
2023-04-15T13:33:39.216Z,7.97
2023-04-15T13:36:07.179Z,8.01
2023-04-15T13:38:36.887Z,7.98
2023-04-15T13:41:04.382Z,8.02
2023-04-15T13:43:34.199Z,8.05
2023-04-15T13:46:01.864Z,7.99
2023-04-15T13:48:29.432Z,8.05
2023-04-15T13:50:58.252Z,8.02
2023-04-15T13:53:37.631Z,7.88
2023-04-15T13:56:07.220Z,7.96
2023-04-15T13:58:34.789Z,7.83
2023-04-15T14:01:04.622Z,7.84
2023-04-15T14:03:33.507Z,7.85
2023-04-15T14:06:02.912Z,7.99
2023-04-15T14:08:31.033Z,7.99
2023-04-15T14:10:58.606Z,7.89
2023-04-15T14:13:26.156Z,7.84
2023-04-15T14:15:53.862Z,8.03
2023-04-15T14:18:21.421Z,7.96
2023-04-15T14:20:48.916Z,7.79
2023-04-15T14:23:17.755Z,7.58
2023-04-15T14:25:47.520Z,7.63
2023-04-15T14:28:15.786Z,7.64
2023-04-15T14:30:43.298Z,7.58
2023-04-15T14:33:10.948Z,7.55
2023-04-15T14:35:38.998Z,7.49
2023-04-15T14:38:10.466Z,7.56
2023-04-15T14:40:39.367Z,7.55
2023-04-15T14:43:06.936Z,7.55
2023-04-15T14:45:34.524Z,7.62
2023-04-15T14:48:02.316Z,7.59
2023-04-15T14:50:29.940Z,7.51
2023-04-15T14:52:57.421Z,7.52
2023-04-15T14:55:25.008Z,7.55
2023-04-15T14:57:53.836Z,7.34
2023-04-15T15:00:21.352Z,7.50
2023-04-15T15:02:48.959Z,7.57
2023-04-15T15:05:16.998Z,7.61
2023-04-15T15:07:44.514Z,7.65
2023-04-15T15:10:12.074Z,7.68
2023-04-15T15:12:40.321Z,7.60
2023-04-15T15:15:25.123Z,7.61
2023-04-15T15:17:56.340Z,7.66
2023-04-15T15:20:24.570Z,7.61
2023-04-15T15:22:52.185Z,7.68
2023-04-15T15:25:19.683Z,7.78
2023-04-15T15:27:47.380Z,7.73
2023-04-15T15:30:16.226Z,7.51
2023-04-15T15:32:44.025Z,7.50
2023-04-15T15:35:11.885Z,7.73
2023-04-15T15:37:39.492Z,7.73
2023-04-15T15:40:08.524Z,7.59
2023-04-15T15:42:36.004Z,7.63
2023-04-15T15:45:04.261Z,7.63
2023-04-15T15:47:34.033Z,7.63
2023-04-15T15:50:03.638Z,7.69
2023-04-15T15:52:32.434Z,7.67
2023-04-15T15:55:00.323Z,7.65
2023-04-15T15:57:27.816Z,7.68
2023-04-15T16:00:07.850Z,7.71
2023-04-15T16:05:09.659Z,7.72
2023-04-15T16:07:37.259Z,7.64
2023-04-15T16:10:05.383Z,7.63
2023-04-15T16:12:34.497Z,7.63
2023-04-15T16:15:02.916Z,7.57
2023-04-15T16:17:30.453Z,7.61
2023-04-15T16:20:01.288Z,7.71
2023-04-15T16:22:29.175Z,7.61
2023-04-15T16:24:56.689Z,7.57
2023-04-15T16:27:24.204Z,7.56
2023-04-15T16:29:51.698Z,7.51
2023-04-15T16:32:19.419Z,7.50
2023-04-15T16:34:47.015Z,7.51
2023-04-15T16:37:15.932Z,7.56
2023-04-15T16:39:43.462Z,7.58
2023-04-15T16:42:11.157Z,7.58
2023-04-15T16:44:38.900Z,7.62
2023-04-15T16:47:06.445Z,7.66
2023-04-15T16:49:34.947Z,7.58
2023-04-15T16:52:03.196Z,7.58
2023-04-15T16:54:34.498Z,7.73
2023-04-15T16:57:02.682Z,7.72
2023-04-15T16:59:30.187Z,7.61
2023-04-15T17:01:57.796Z,7.57
2023-04-15T17:04:25.851Z,7.58
2023-04-15T17:06:53.395Z,7.59
2023-04-15T17:09:20.935Z,7.57
2023-04-15T17:11:50.347Z,7.56
2023-04-15T17:14:17.840Z,7.57
2023-04-15T17:16:46.209Z,7.57
2023-04-15T17:19:13.742Z,7.60
2023-04-15T17:21:41.435Z,7.60
2023-04-15T17:24:08.940Z,7.66
2023-04-15T17:26:36.574Z,7.65
2023-04-15T17:29:05.762Z,7.69
2023-04-15T17:31:33.534Z,7.70
2023-04-15T17:34:09.546Z,7.74
2023-04-15T17:36:38.551Z,7.77
2023-04-15T17:39:06.491Z,7.80
2023-04-15T17:41:34.343Z,7.81
2023-04-15T17:44:02.077Z,7.86
2023-04-15T17:46:31.834Z,7.86
2023-04-15T17:48:59.444Z,7.86
2023-04-15T17:51:28.052Z,7.88
2023-04-15T17:54:07.707Z,7.99
2023-04-15T17:56:35.474Z,7.99
2023-04-15T17:59:03.484Z,7.99
2023-04-15T18:01:32.331Z,7.92
2023-04-15T18:04:00.071Z,7.94
2023-04-15T18:06:27.924Z,7.94
2023-04-15T18:08:56.126Z,7.91
2023-04-15T18:11:23.727Z,7.90
2023-04-15T18:13:51.279Z,7.94
2023-04-15T18:16:18.883Z,7.93
2023-04-15T18:18:47.871Z,7.95
2023-04-15T18:21:24.205Z,8.00
2023-04-15T18:23:51.848Z,8.03
2023-04-15T18:26:19.311Z,8.02
2023-04-15T18:28:46.832Z,8.06
2023-04-15T18:31:14.499Z,8.05
2023-04-15T18:33:42.006Z,8.02
2023-04-15T18:36:10.894Z,8.07
2023-04-15T18:38:38.571Z,8.10
2023-04-15T18:41:07.697Z,8.10
2023-04-15T18:43:37.012Z,8.15
2023-04-15T18:46:09.514Z,8.14
2023-04-15T18:48:37.126Z,8.09
2023-04-15T18:51:04.745Z,8.13
2023-04-15T18:53:33.534Z,8.14
2023-04-15T18:56:02.844Z,8.10
2023-04-15T18:59:25.337Z,8.15
2023-04-15T19:01:18.177Z,8.08
2023-04-15T19:03:45.893Z,8.08
2023-04-15T19:06:13.378Z,8.11
2023-04-15T19:08:42.199Z,8.10
2023-04-15T19:11:09.841Z,8.15
2023-04-15T19:13:37.370Z,8.12
2023-04-15T19:16:05.653Z,8.13
2023-04-15T19:18:33.181Z,8.09
2023-04-15T19:21:01.406Z,8.03
2023-04-15T19:23:29.093Z,8.02
2023-04-15T19:25:59.872Z,8.10
2023-04-15T19:28:28.305Z,8.14
2023-04-15T19:30:56.211Z,8.15
2023-04-15T19:33:24.445Z,8.14
2023-04-15T19:35:52.133Z,8.17
2023-04-15T19:38:19.715Z,8.19
2023-04-15T19:40:47.403Z,8.20
2023-04-15T19:43:16.511Z,8.17
2023-04-15T19:45:46.827Z,8.18
2023-04-15T19:48:14.656Z,8.16
2023-04-15T19:50:51.108Z,8.19
2023-04-15T19:53:18.968Z,8.19
2023-04-15T19:55:48.354Z,8.17
2023-04-15T19:58:17.756Z,8.17
2023-04-15T20:00:45.622Z,8.16
2023-04-15T20:03:13.433Z,8.15
2023-04-15T20:05:41.103Z,8.16
2023-04-15T20:08:08.652Z,8.16
2023-04-15T20:10:37.303Z,8.15
2023-04-15T20:13:05.242Z,8.14
2023-04-15T20:15:34.186Z,8.15
2023-04-15T20:18:01.765Z,8.15
2023-04-15T20:20:29.417Z,8.15
2023-04-15T20:22:56.951Z,8.11
2023-04-15T20:25:24.627Z,8.15
2023-04-15T20:27:52.389Z,8.13
2023-04-15T20:30:20.120Z,8.10
2023-04-15T20:32:48.977Z,8.05
2023-04-15T20:35:19.769Z,8.07
2023-04-15T20:37:50.064Z,8.11
2023-04-15T20:40:17.746Z,8.13
2023-04-15T20:42:45.685Z,8.15
2023-04-15T20:45:13.347Z,8.20
2023-04-15T20:47:41.630Z,8.16
2023-04-15T20:50:13.706Z,8.15
2023-04-15T20:52:41.599Z,8.11
2023-04-15T20:55:19.468Z,8.06
2023-04-15T20:57:51.242Z,8.06
2023-04-15T21:00:19.023Z,8.04
2023-04-15T21:02:46.955Z,8.09
2023-04-15T21:05:15.981Z,8.15
2023-04-15T21:07:43.728Z,8.17
2023-04-15T21:10:12.223Z,8.17
2023-04-15T21:12:41.271Z,8.18
2023-04-15T21:15:09.823Z,8.18
2023-04-15T21:17:41.562Z,8.16
2023-04-15T21:20:12.430Z,8.19
2023-04-15T21:22:44.683Z,8.17
2023-04-15T21:25:12.635Z,8.19
2023-04-15T21:27:40.605Z,8.18
2023-04-15T21:30:09.265Z,8.16
2023-04-15T21:32:36.850Z,8.17
2023-04-15T21:35:05.127Z,8.17
2023-04-15T21:37:36.463Z,8.16
2023-04-15T21:40:08.499Z,8.16
2023-04-15T21:42:36.000Z,8.15
2023-04-15T21:45:03.854Z,8.10
2023-04-15T21:47:33.877Z,8.10
2023-04-15T21:50:21.314Z,8.07
2023-04-15T21:52:48.815Z,8.08
2023-04-15T21:55:18.888Z,8.07
2023-04-15T21:57:46.365Z,8.08
2023-04-15T22:00:15.332Z,8.12
2023-04-15T22:02:43.092Z,8.10
2023-04-15T22:05:10.658Z,8.11
2023-04-15T22:07:38.226Z,8.11
2023-04-15T22:10:06.474Z,8.14
2023-04-15T22:12:35.419Z,8.11
2023-04-15T22:15:02.891Z,8.13
2023-04-15T22:17:30.769Z,8.14
2023-04-15T22:19:58.241Z,8.11
2023-04-15T22:22:26.687Z,8.09
2023-04-15T22:25:09.628Z,8.11
2023-04-15T22:27:38.461Z,8.14
2023-04-15T22:30:07.089Z,8.11
2023-04-15T22:32:34.616Z,8.08
2023-04-15T22:35:02.538Z,7.99
2023-04-15T22:37:30.836Z,7.99
2023-04-15T22:39:58.493Z,8.03
2023-04-15T22:42:26.404Z,8.02
2023-04-15T22:44:55.273Z,8.04
2023-04-15T22:47:22.775Z,8.02
2023-04-15T22:49:50.306Z,7.91
2023-04-15T22:52:29.434Z,7.88
2023-04-15T22:54:57.973Z,7.80
2023-04-15T22:57:25.829Z,7.78
2023-04-15T22:59:54.734Z,7.70
2023-04-15T23:02:22.455Z,7.65
2023-04-15T23:04:50.309Z,7.66
2023-04-15T23:07:17.852Z,7.67
2023-04-15T23:09:45.329Z,7.69
2023-04-15T23:12:12.904Z,7.71
2023-04-15T23:14:40.404Z,7.67
2023-04-15T23:17:09.262Z,7.66
2023-04-15T23:19:36.767Z,7.73
2023-04-15T23:22:04.452Z,7.66
2023-04-15T23:24:31.963Z,7.61
2023-04-15T23:26:59.443Z,7.69
2023-04-15T23:29:26.935Z,7.72
2023-04-15T23:31:54.461Z,7.76
2023-04-15T23:34:23.329Z,7.69
2023-04-15T23:36:51.171Z,7.61
2023-04-15T23:39:18.635Z,7.62
2023-04-15T23:41:46.239Z,7.60
2023-04-15T23:44:13.739Z,7.60
2023-04-15T23:46:43.904Z,7.56
2023-04-15T23:49:11.602Z,7.54
2023-04-15T23:51:40.572Z,7.48
2023-04-15T23:54:08.045Z,7.46
2023-04-15T23:56:36.376Z,7.58
2023-04-15T23:59:03.846Z,7.44
